EGJA/ACI METAR and TAF weather

Enter ICAO airport designator
Station Type Date Time Source
EGJA METAR 2024/04/15 09:50 UTC NOAA

EGJA 150950Z 26027G37KT 5000 SHRA SCT018 11/09 Q1012


Station Type Date Time Source
EGJA Decoded METAR 2024/04/15 09:50 UTC NOAA

Alderney / Channel Island, United Kingdom (EGJA) 49-43N 002-12W
Apr 15, 2024 - 05:50 AM EDT / 2024.04.15 0950 UTC
Wind: from the W (260 degrees) at 31 MPH (27 KT) gusting to 43 MPH (37 KT):0
Visibility: 3 mile(s):0
Sky conditions: partly cloudy
Weather: rain showers
Temperature: 51 F (11 C)
Dew Point: 48 F (9 C)
Relative Humidity: 87%
Pressure (altimeter): 29.88 in. Hg (1012 hPa)
ob: EGJA 150950Z 26027G37KT 5000 SHRA SCT018 11/09 Q1012
cycle: 10

Station Type Date Time Source
EGJA TAF UTC NOAA

Error!

Example: see airport list